createdAt,value
2022-10-08T12:17:13.456Z,3.22
2022-10-08T12:19:45.078Z,2.42
2022-10-08T12:22:33.640Z,1.95
2022-10-08T12:25:16.454Z,2.28
2022-10-08T12:27:43.972Z,2.25
2022-10-08T12:30:14.210Z,2.60
2022-10-08T12:32:58.219Z,2.55
2022-10-08T12:35:27.622Z,2.55
2022-10-08T12:38:10.490Z,2.33
2022-10-08T12:40:41.541Z,2.60
2022-10-08T12:43:39.725Z,2.53
2022-10-08T12:46:14.463Z,2.17
2022-10-08T12:48:51.948Z,1.70
2022-10-08T12:51:37.092Z,2.38
2022-10-08T12:54:05.526Z,2.47
2022-10-08T12:56:33.401Z,2.55
2022-10-08T12:59:03.184Z,2.08
2022-10-08T13:01:31.260Z,2.60
2022-10-08T13:04:10.612Z,1.98
2022-10-08T13:06:42.528Z,2.17
2022-10-08T13:09:25.233Z,2.10
2022-10-08T13:11:57.160Z,2.10
2022-10-08T13:14:28.537Z,2.53
2022-10-08T13:16:56.413Z,1.85
2022-10-08T13:19:32.614Z,1.60
2022-10-08T13:22:01.152Z,2.08
2022-10-08T13:24:39.408Z,2.03
2022-10-08T13:27:07.914Z,1.80
2022-10-08T13:29:36.279Z,2.40
2022-10-08T13:32:05.952Z,1.98
2022-10-08T13:34:36.282Z,2.20
2022-10-08T13:37:05.946Z,2.53
2022-10-08T13:39:34.432Z,2.05
2022-10-08T13:42:03.025Z,2.40
2022-10-08T13:44:30.694Z,2.05
2022-10-08T13:47:03.509Z,2.30
2022-10-08T13:49:33.081Z,2.00
2022-10-08T13:52:02.194Z,1.60
2022-10-08T13:54:31.355Z,2.17
2022-10-08T13:56:58.872Z,1.88
2022-10-08T13:59:30.393Z,1.50
2022-10-08T14:01:58.556Z,1.73
2022-10-08T14:04:26.064Z,1.55
2022-10-08T14:06:55.520Z,1.77
2022-10-08T14:09:26.027Z,2.03
2022-10-08T14:11:57.045Z,1.63
2022-10-08T14:14:25.068Z,1.85
2022-10-08T14:16:52.860Z,2.20
2022-10-08T14:19:25.250Z,7.78
2022-10-08T14:21:55.325Z,1.95
2022-10-08T14:24:24.235Z,2.08
2022-10-08T14:26:51.822Z,3.17
2022-10-08T14:29:19.422Z,7.00
2022-10-08T14:31:49.929Z,2.50
2022-10-08T14:34:17.604Z,2.17
2022-10-08T14:36:45.208Z,2.95
2022-10-08T14:39:12.704Z,2.40
2022-10-08T14:41:43.943Z,2.88
2022-10-08T14:44:13.299Z,2.30
2022-10-08T14:46:40.845Z,2.22
2022-10-08T14:49:08.308Z,2.10
2022-10-08T14:51:39.991Z,2.33
2022-10-08T14:54:07.635Z,2.78
2022-10-08T14:56:35.948Z,2.65
2022-10-08T14:59:04.833Z,2.50
2022-10-08T15:01:38.088Z,2.60
2022-10-08T15:04:06.006Z,3.17
2022-10-08T15:06:34.555Z,2.85
2022-10-08T15:09:02.055Z,2.42
2022-10-08T15:11:29.674Z,2.50
2022-10-08T15:13:59.354Z,3.47
2022-10-08T15:16:28.249Z,2.15
2022-10-08T15:18:55.756Z,2.72
2022-10-08T15:21:23.213Z,2.00
2022-10-08T15:23:50.931Z,2.45
2022-10-08T15:26:18.957Z,2.22
2022-10-08T15:28:47.043Z,2.47
2022-10-08T15:31:16.235Z,2.72
2022-10-08T15:33:45.763Z,2.42
2022-10-08T15:36:17.724Z,2.30
2022-10-08T15:38:45.392Z,2.53
2022-10-08T15:41:15.083Z,2.15
2022-10-08T15:43:42.835Z,3.35
2022-10-08T15:46:11.199Z,3.22
2022-10-08T15:48:38.891Z,3.53
2022-10-08T15:51:07.869Z,2.97
2022-10-08T15:53:35.519Z,3.20
2022-10-08T15:56:03.543Z,3.13
2022-10-08T15:58:49.819Z,3.58
2022-10-08T16:01:19.423Z,3.30
2022-10-08T16:03:48.234Z,2.97
2022-10-08T16:06:17.997Z,3.00
2022-10-08T16:08:45.779Z,2.70
2022-10-08T16:11:16.306Z,2.83
2022-10-08T16:13:46.076Z,3.33
2022-10-08T16:16:16.736Z,3.20
2022-10-08T16:18:47.063Z,3.15
2022-10-08T16:21:14.945Z,2.92
2022-10-08T16:23:43.755Z,3.28
2022-10-08T16:26:12.987Z,3.30
2022-10-08T16:28:42.247Z,3.20
2022-10-08T16:31:11.536Z,4.00
2022-10-08T16:33:39.583Z,3.60
2022-10-08T16:36:08.259Z,3.90
2022-10-08T16:38:36.631Z,4.10
2022-10-08T16:41:16.006Z,3.80
2022-10-08T16:43:46.223Z,3.85
2022-10-08T16:46:17.893Z,3.90
2022-10-08T16:48:45.716Z,3.35
2022-10-08T16:51:13.194Z,3.67
2022-10-08T16:53:40.747Z,3.35
2022-10-08T16:56:08.244Z,4.05
2022-10-08T16:58:37.131Z,3.63
2022-10-08T17:01:08.286Z,3.40
2022-10-08T17:03:36.059Z,3.75
2022-10-08T17:06:04.030Z,4.03
2022-10-08T17:08:31.584Z,3.38
2022-10-08T17:11:03.867Z,3.33
2022-10-08T17:13:31.452Z,3.30
2022-10-08T17:16:00.946Z,4.50
2022-10-08T17:18:28.861Z,3.58
2022-10-08T17:20:56.965Z,3.63
2022-10-08T17:23:25.304Z,3.45
2022-10-08T17:26:00.968Z,3.78
2022-10-08T17:28:29.226Z,3.22
2022-10-08T17:30:58.192Z,3.00
2022-10-08T17:33:27.175Z,3.85
2022-10-08T17:36:01.307Z,3.33
2022-10-08T17:38:31.245Z,3.33
2022-10-08T17:40:59.281Z,3.65
2022-10-08T17:43:27.340Z,3.50
2022-10-08T17:45:54.954Z,3.78
2022-10-08T17:48:22.684Z,3.80
2022-10-08T17:50:51.475Z,5.18
2022-10-08T17:53:19.002Z,3.83
2022-10-08T17:55:46.433Z,4.15
2022-10-08T17:58:14.223Z,3.20
2022-10-08T18:00:41.760Z,3.70
2022-10-08T18:03:09.831Z,3.88
2022-10-08T18:05:37.958Z,4.15
2022-10-08T18:08:06.856Z,3.78
2022-10-08T18:10:37.950Z,3.75
2022-10-08T18:13:05.673Z,3.70
2022-10-08T18:15:37.291Z,3.60
2022-10-08T18:18:04.886Z,4.05
2022-10-08T18:20:32.335Z,3.75
2022-10-08T18:23:00.464Z,3.47
2022-10-08T18:25:29.327Z,3.67
2022-10-08T18:27:56.909Z,4.13
2022-10-08T18:30:24.376Z,4.50
2022-10-08T18:32:51.932Z,3.75
2022-10-08T18:35:20.374Z,4.43
2022-10-08T18:37:47.839Z,3.92
2022-10-08T18:40:15.473Z,3.72
2022-10-08T18:42:44.456Z,3.75
2022-10-08T18:45:12.342Z,3.55
2022-10-08T18:47:40.438Z,3.28
2022-10-08T18:50:08.631Z,3.55
2022-10-08T18:52:36.826Z,3.40
2022-10-08T18:55:04.610Z,4.65
2022-10-08T18:57:32.299Z,3.05
2022-10-08T19:00:05.424Z,3.10
2022-10-08T19:02:33.217Z,3.58
2022-10-08T19:05:00.991Z,3.60
2022-10-08T19:07:28.739Z,4.15
2022-10-08T19:09:57.511Z,3.17
2022-10-08T19:12:25.031Z,2.95
2022-10-08T19:14:54.723Z,3.17
2022-10-08T19:17:23.571Z,3.33
2022-10-08T19:19:51.331Z,3.13
2022-10-08T19:22:19.466Z,3.38
2022-10-08T19:24:46.929Z,3.00
2022-10-08T19:27:14.741Z,2.67
2022-10-08T19:29:42.304Z,16.27
2022-10-08T19:32:10.323Z,3.15
2022-10-08T19:34:39.473Z,3.97
2022-10-08T19:37:06.988Z,3.15
2022-10-08T19:39:34.538Z,2.97
2022-10-08T19:42:02.447Z,3.10
2022-10-08T19:44:30.091Z,3.55
2022-10-08T19:46:57.582Z,3.15
2022-10-08T19:49:25.238Z,3.03
2022-10-08T19:51:54.685Z,4.63
2022-10-08T19:54:22.378Z,3.55
2022-10-08T19:56:50.120Z,2.95
2022-10-08T19:59:17.659Z,3.28
2022-10-08T20:01:45.194Z,3.72
2022-10-08T20:04:14.029Z,3.25
2022-10-08T20:06:42.679Z,3.60
2022-10-08T20:09:13.541Z,3.13
2022-10-08T20:11:44.430Z,3.55
2022-10-08T20:14:12.794Z,3.65
2022-10-08T20:16:41.345Z,3.35
2022-10-08T20:19:10.002Z,3.63
2022-10-08T20:21:38.544Z,3.45
2022-10-08T20:24:06.378Z,4.40
2022-10-08T20:26:36.058Z,3.78
2022-10-08T20:29:05.436Z,3.33
2022-10-08T20:31:34.476Z,3.90
2022-10-08T20:34:03.093Z,3.22
2022-10-08T20:36:31.037Z,3.83
2022-10-08T20:38:59.325Z,3.55
2022-10-08T20:41:30.930Z,3.63
2022-10-08T20:44:03.064Z,3.80
2022-10-08T20:46:31.223Z,3.53
2022-10-08T20:48:58.839Z,5.13
2022-10-08T20:51:31.588Z,3.60
2022-10-08T20:53:59.895Z,3.28
2022-10-08T20:56:27.935Z,3.78
2022-10-08T20:58:55.561Z,4.22
2022-10-08T21:01:27.354Z,3.53
2022-10-08T21:03:57.185Z,3.70
2022-10-08T21:06:25.957Z,4.22
2022-10-08T21:08:57.171Z,4.03
2022-10-08T21:11:25.519Z,3.00
2022-10-08T21:13:53.219Z,3.45
2022-10-08T21:16:22.195Z,3.42
2022-10-08T21:18:51.691Z,3.60
2022-10-08T21:21:19.517Z,4.22
2022-10-08T21:23:49.611Z,4.30
2022-10-08T21:26:18.022Z,3.95
2022-10-08T21:28:46.708Z,4.88
2022-10-08T21:31:14.496Z,3.80
2022-10-08T21:33:43.093Z,4.30
2022-10-08T21:36:13.639Z,4.22
2022-10-08T21:38:41.176Z,4.95
2022-10-08T21:41:13.002Z,4.15
2022-10-08T21:43:40.659Z,4.15
2022-10-08T21:46:09.188Z,4.15
2022-10-08T21:48:36.832Z,4.93
2022-10-08T21:51:05.403Z,7.00
2022-10-08T21:53:35.035Z,4.90
2022-10-08T21:56:04.001Z,4.50
2022-10-08T21:58:32.254Z,5.68
2022-10-08T22:00:59.763Z,5.72
2022-10-08T22:03:27.371Z,6.15
2022-10-08T22:05:56.434Z,5.43
2022-10-08T22:08:24.773Z,5.40
2022-10-08T22:10:53.857Z,5.65
2022-10-08T22:13:21.456Z,5.15
2022-10-08T22:15:52.855Z,5.30
2022-10-08T22:18:20.392Z,5.78
2022-10-08T22:20:48.191Z,6.53
2022-10-08T22:23:16.112Z,6.38
2022-10-08T22:25:43.644Z,6.20
2022-10-08T22:28:12.492Z,5.60
2022-10-08T22:30:40.018Z,6.20
2022-10-08T22:33:07.488Z,6.00
2022-10-08T22:35:34.954Z,6.10
2022-10-08T22:38:02.491Z,5.57
2022-10-08T22:40:31.011Z,5.30
2022-10-08T22:42:58.501Z,6.35
2022-10-08T22:45:27.566Z,6.30
2022-10-08T22:47:55.101Z,6.93
2022-10-08T22:50:24.449Z,6.47
2022-10-08T22:52:51.943Z,6.68
2022-10-08T22:55:19.388Z,5.82
2022-10-08T22:57:46.879Z,5.93
2022-10-08T23:00:15.164Z,6.78
2022-10-08T23:02:44.028Z,6.78
2022-10-08T23:05:11.670Z,6.95
2022-10-08T23:07:39.151Z,6.53
2022-10-08T23:10:06.932Z,7.93
2022-10-08T23:12:34.388Z,6.72
2022-10-08T23:15:02.154Z,6.07
2022-10-08T23:17:29.677Z,7.68
2022-10-08T23:19:58.479Z,5.93
2022-10-08T23:22:26.192Z,6.35
2022-10-08T23:24:54.030Z,5.95
2022-10-08T23:27:21.501Z,6.68
2022-10-08T23:29:48.997Z,5.63
2022-10-08T23:32:16.675Z,6.38
2022-10-08T23:34:44.229Z,7.15
2022-10-08T23:37:13.034Z,7.38
2022-10-08T23:39:40.519Z,6.78
2022-10-08T23:42:08.511Z,7.78
2022-10-08T23:44:36.253Z,6.50
2022-10-08T23:47:03.797Z,7.57
2022-10-08T23:49:32.514Z,7.22
2022-10-08T23:52:01.579Z,6.32
2022-10-08T23:54:30.394Z,7.85
2022-10-08T23:56:57.995Z,6.65
2022-10-08T23:59:25.482Z,7.15
